createdAt,value
2019-01-17T00:03:40.933Z,77.29
2019-01-17T00:09:53.193Z,76.35
2019-01-17T00:15:57.606Z,76.90
2019-01-17T00:22:06.956Z,76.71
2019-01-17T00:28:19.024Z,76.64
2019-01-17T00:34:37.429Z,76.49
2019-01-17T00:40:59.278Z,76.82
2019-01-17T00:47:05.465Z,77.07
2019-01-17T00:53:11.750Z,77.37
2019-01-17T00:59:33.882Z,77.10
2019-01-17T01:05:54.891Z,77.19
2019-01-17T01:11:59.289Z,76.67
2019-01-17T01:18:11.359Z,77.10
2019-01-17T01:24:26.559Z,76.81
2019-01-17T01:30:36.792Z,77.39
2019-01-17T01:36:43.123Z,76.96
2019-01-17T01:42:47.567Z,76.54
2019-01-17T01:48:53.865Z,76.46
2019-01-17T01:54:58.481Z,77.58
2019-01-17T02:01:03.107Z,77.63
2019-01-17T02:07:07.905Z,79.92
2019-01-17T02:13:13.711Z,81.52
2019-01-17T02:19:18.301Z,82.23
2019-01-17T02:25:22.922Z,82.14
2019-01-17T02:31:27.628Z,83.31
2019-01-17T02:37:32.219Z,84.06
2019-01-17T02:43:37.111Z,85.23
2019-01-17T02:49:41.739Z,86.24
2019-01-17T02:55:46.310Z,86.16
2019-01-17T03:01:50.880Z,85.81
2019-01-17T03:07:55.507Z,86.39
2019-01-17T03:14:00.081Z,87.21
2019-01-17T03:20:07.293Z,87.04
2019-01-17T03:26:11.869Z,87.91
2019-01-17T03:32:17.697Z,87.83
2019-01-17T03:38:22.301Z,87.57
2019-01-17T03:44:27.287Z,87.68
2019-01-17T03:50:31.905Z,87.06
2019-01-17T03:56:36.526Z,87.52
2019-01-17T04:02:41.183Z,88.06
2019-01-17T04:08:45.771Z,88.30
2019-01-17T04:14:50.408Z,89.52
2019-01-17T04:20:55.094Z,89.59
2019-01-17T04:26:59.723Z,89.85
2019-01-17T04:33:04.348Z,90.53
2019-01-17T04:39:08.992Z,90.39
2019-01-17T04:45:15.040Z,91.01
2019-01-17T04:51:19.792Z,91.10
2019-01-17T04:57:24.372Z,91.00
2019-01-17T05:03:28.935Z,90.63
2019-01-17T05:09:33.492Z,90.21
2019-01-17T05:15:38.048Z,90.53
2019-01-17T05:21:42.663Z,90.30
2019-01-17T05:27:47.224Z,90.75
2019-01-17T05:33:52.368Z,91.28
2019-01-17T05:39:56.950Z,91.60
2019-01-17T05:46:04.365Z,91.41
2019-01-17T05:52:08.984Z,91.29
2019-01-17T05:58:13.603Z,90.87
2019-01-17T06:04:18.241Z,91.49
2019-01-17T06:10:22.802Z,90.96
2019-01-17T06:16:27.347Z,92.04
2019-01-17T06:22:31.990Z,91.28
2019-01-17T06:28:37.430Z,91.25
2019-01-17T06:34:42.007Z,90.44
2019-01-17T06:40:46.716Z,90.09
2019-01-17T06:46:51.335Z,90.06
2019-01-17T06:52:55.968Z,89.22
2019-01-17T06:59:03.077Z,88.52
2019-01-17T07:05:09.233Z,88.24
2019-01-17T07:11:13.792Z,87.75
2019-01-17T07:17:18.403Z,87.28
2019-01-17T07:23:23.153Z,87.82
2019-01-17T07:29:27.709Z,87.21
2019-01-17T07:35:32.411Z,88.50
2019-01-17T07:41:37.033Z,88.55
2019-01-17T07:47:41.672Z,88.94
2019-01-17T07:53:46.369Z,88.61
2019-01-17T07:59:53.238Z,88.52
2019-01-17T08:05:57.901Z,88.59
2019-01-17T08:12:05.142Z,88.91
2019-01-17T08:18:08.883Z,88.50
2019-01-17T08:24:13.738Z,88.86
2019-01-17T08:30:24.699Z,89.24
2019-01-17T08:36:29.339Z,89.08
2019-01-17T08:42:33.890Z,88.09
2019-01-17T08:48:38.422Z,88.04
2019-01-17T08:54:42.959Z,87.59
2019-01-17T09:00:47.571Z,85.91
2019-01-17T09:06:52.145Z,87.32
2019-01-17T09:12:56.749Z,86.98
2019-01-17T09:19:01.289Z,86.68
2019-01-17T09:25:09.223Z,86.73
2019-01-17T09:31:13.770Z,86.95
2019-01-17T09:37:18.307Z,87.14
2019-01-17T09:43:22.923Z,87.75
2019-01-17T09:49:27.455Z,87.09
2019-01-17T09:55:31.984Z,83.75
2019-01-17T10:01:36.524Z,82.79
2019-01-17T10:07:41.145Z,82.57
2019-01-17T10:13:45.683Z,81.40
2019-01-17T10:20:23.084Z,79.93
2019-01-17T10:26:48.681Z,77.53
2019-01-17T10:33:23.016Z,77.05
2019-01-17T10:39:50.470Z,78.29
2019-01-17T10:46:29.583Z,77.07
2019-01-17T10:52:56.250Z,79.54
2019-01-17T10:59:11.047Z,79.76
2019-01-17T11:05:25.730Z,78.83
2019-01-17T11:11:40.730Z,78.95
2019-01-17T11:18:04.548Z,76.67
2019-01-17T11:24:31.176Z,74.77
2019-01-17T11:30:52.173Z,73.88
2019-01-17T11:37:41.997Z,74.17
2019-01-17T11:44:11.848Z,75.09
2019-01-17T11:50:40.228Z,73.90
2019-01-17T11:57:07.025Z,74.65
2019-01-17T12:03:39.804Z,75.65
2019-01-17T12:09:44.331Z,74.96
2019-01-17T12:15:48.859Z,74.31
2019-01-17T12:21:53.465Z,73.23
2019-01-17T12:27:57.997Z,72.00
2019-01-17T12:34:02.529Z,68.52
2019-01-17T12:40:11.244Z,66.15
2019-01-17T12:46:15.780Z,66.59
2019-01-17T12:52:20.327Z,66.78
2019-01-17T12:58:25.186Z,64.85
2019-01-17T13:04:29.856Z,65.81
2019-01-17T13:10:34.387Z,67.20
2019-01-17T13:16:38.928Z,66.79
2019-01-17T13:22:43.676Z,66.79
2019-01-17T13:28:48.209Z,68.02
2019-01-17T13:34:52.807Z,66.50
2019-01-17T13:40:57.342Z,66.70
2019-01-17T13:47:01.948Z,66.69
2019-01-17T13:53:06.542Z,70.09
2019-01-17T13:59:11.140Z,71.59
2019-01-17T14:05:15.974Z,72.09
2019-01-17T14:11:20.502Z,73.26
2019-01-17T14:17:25.181Z,74.65
2019-01-17T14:23:29.771Z,76.52
2019-01-17T14:29:34.326Z,79.05
2019-01-17T14:35:38.918Z,87.07
2019-01-17T14:41:43.465Z,91.74
2019-01-17T14:47:48.066Z,95.00
2019-01-17T14:53:52.592Z,96.21
2019-01-17T14:59:57.141Z,97.02
2019-01-17T15:06:02.700Z,97.06
2019-01-17T15:12:07.222Z,97.62
2019-01-17T15:18:11.812Z,98.33
2019-01-17T15:24:16.339Z,98.73
2019-01-17T15:30:24.646Z,98.51
2019-01-17T15:36:29.168Z,98.57
2019-01-17T15:42:33.704Z,98.62
2019-01-17T15:48:38.253Z,98.32
2019-01-17T15:54:42.954Z,97.97
2019-01-17T16:00:47.587Z,97.57
2019-01-17T16:06:52.249Z,97.23
2019-01-17T16:12:57.099Z,96.93
2019-01-17T16:19:01.723Z,96.03
2019-01-17T16:25:10.320Z,94.97
2019-01-17T16:31:14.954Z,94.01
2019-01-17T16:37:19.714Z,93.85
2019-01-17T16:43:24.277Z,93.91
2019-01-17T16:49:28.897Z,93.66
2019-01-17T16:55:33.521Z,93.82
2019-01-17T17:01:38.090Z,93.84
2019-01-17T17:07:42.797Z,94.29
2019-01-17T17:13:47.418Z,93.61
2019-01-17T17:19:52.135Z,93.03
2019-01-17T17:25:56.731Z,92.71
2019-01-17T17:32:01.271Z,92.21
2019-01-17T17:38:06.283Z,90.49
2019-01-17T17:44:10.933Z,89.77
2019-01-17T17:50:18.556Z,90.32
2019-01-17T17:56:23.122Z,89.70
2019-01-17T18:02:29.471Z,89.69
2019-01-17T18:08:34.104Z,87.40
2019-01-17T18:14:38.717Z,87.43
2019-01-17T18:20:43.357Z,89.26
2019-01-17T18:26:48.103Z,89.88
2019-01-17T18:32:52.903Z,90.78
2019-01-17T18:38:57.442Z,90.30
2019-01-17T18:45:02.419Z,88.85
2019-01-17T18:51:07.138Z,86.96
2019-01-17T18:57:11.743Z,87.05
2019-01-17T19:03:16.361Z,86.11
2019-01-17T19:09:21.071Z,85.01
2019-01-17T19:15:31.598Z,85.43
2019-01-17T19:21:36.411Z,86.93
2019-01-17T19:27:41.514Z,85.58
2019-01-17T19:33:46.134Z,85.99
2019-01-17T19:39:50.833Z,84.92
2019-01-17T19:45:55.481Z,84.61
2019-01-17T19:52:00.058Z,83.72
2019-01-17T19:58:04.855Z,84.44
2019-01-17T20:04:09.406Z,84.10
2019-01-17T20:10:20.924Z,83.83
2019-01-17T20:16:25.560Z,84.52
2019-01-17T20:22:30.174Z,84.28
2019-01-17T20:28:35.838Z,83.02
2019-01-17T20:34:40.428Z,83.36
2019-01-17T20:40:45.012Z,82.72
2019-01-17T20:46:49.647Z,81.48
2019-01-17T20:52:54.501Z,81.25
2019-01-17T20:58:59.068Z,80.34
2019-01-17T21:05:03.986Z,80.26
2019-01-17T21:11:08.651Z,80.47
2019-01-17T21:17:14.148Z,80.42
2019-01-17T21:23:18.765Z,80.96
2019-01-17T21:29:23.387Z,81.30
2019-01-17T21:35:28.009Z,81.42
2019-01-17T21:41:32.684Z,81.11
2019-01-17T21:47:37.294Z,81.18
2019-01-17T21:53:41.919Z,82.10
2019-01-17T21:59:46.510Z,82.08
2019-01-17T22:05:52.914Z,82.55
2019-01-17T22:11:57.563Z,83.58
2019-01-17T22:18:02.117Z,83.80
2019-01-17T22:24:06.805Z,83.80
2019-01-17T22:30:21.085Z,83.37
2019-01-17T22:36:26.769Z,83.77
2019-01-17T22:42:31.352Z,84.16
2019-01-17T22:48:35.925Z,83.67
2019-01-17T22:54:42.138Z,83.27
2019-01-17T23:00:57.731Z,82.95
2019-01-17T23:07:02.319Z,83.31
2019-01-17T23:13:07.003Z,84.28
2019-01-17T23:19:11.643Z,83.94
2019-01-17T23:25:16.272Z,84.49
2019-01-17T23:31:20.915Z,84.35
2019-01-17T23:37:25.583Z,84.04
2019-01-17T23:43:30.451Z,88.13
2019-01-17T23:49:35.176Z,89.68
2019-01-17T23:55:40.975Z,90.48
